sensor_id;sensor_type;location;lat;lon;timestamp;temperature;humidity
14475;DHT22;7323;50.848;4.334;2023-06-22T00:02:21;21.80;1.00
14475;DHT22;7323;50.848;4.334;2023-06-22T00:04:47;21.80;1.00
14475;DHT22;7323;50.848;4.334;2023-06-22T00:07:18;21.90;1.00
14475;DHT22;7323;50.848;4.334;2023-06-22T00:09:47;21.90;1.00
14475;DHT22;7323;50.848;4.334;2023-06-22T00:12:25;21.90;1.00
14475;DHT22;7323;50.848;4.334;2023-06-22T00:18:12;21.70;1.00
14475;DHT22;7323;50.848;4.334;2023-06-22T00:20:38;21.60;1.00
14475;DHT22;7323;50.848;4.334;2023-06-22T00:23:06;21.60;1.00
14475;DHT22;7323;50.848;4.334;2023-06-22T00:25:39;21.60;1.00
14475;DHT22;7323;50.848;4.334;2023-06-22T00:28:05;21.60;1.00
14475;DHT22;7323;50.848;4.334;2023-06-22T00:30:37;21.70;1.00
14475;DHT22;7323;50.848;4.334;2023-06-22T00:33:06;21.70;1.00
14475;DHT22;7323;50.848;4.334;2023-06-22T00:35:33;21.70;1.00
14475;DHT22;7323;50.848;4.334;2023-06-22T00:38:00;21.60;1.00
14475;DHT22;7323;50.848;4.334;2023-06-22T00:40:33;21.60;1.00
14475;DHT22;7323;50.848;4.334;2023-06-22T00:42:59;21.60;1.00
14475;DHT22;7323;50.848;4.334;2023-06-22T00:45:26;21.60;1.00
14475;DHT22;7323;50.848;4.334;2023-06-22T00:47:57;21.70;1.00
14475;DHT22;7323;50.848;4.334;2023-06-22T00:50:25;21.60;1.00
14475;DHT22;7323;50.848;4.334;2023-06-22T00:52:52;21.70;1.00
14475;DHT22;7323;50.848;4.334;2023-06-22T00:55:22;21.70;1.00
14475;DHT22;7323;50.848;4.334;2023-06-22T01:01:09;21.60;1.00
14475;DHT22;7323;50.848;4.334;2023-06-22T01:03:35;21.60;1.00
14475;DHT22;7323;50.848;4.334;2023-06-22T01:06:08;21.70;1.00
14475;DHT22;7323;50.848;4.334;2023-06-22T01:08:49;21.70;1.00
14475;DHT22;7323;50.848;4.334;2023-06-22T01:11:31;21.70;1.00
14475;DHT22;7323;50.848;4.334;2023-06-22T01:14:03;21.70;1.00
14475;DHT22;7323;50.848;4.334;2023-06-22T01:16:33;21.60;1.00
14475;DHT22;7323;50.848;4.334;2023-06-22T01:19:09;21.60;1.00
14475;DHT22;7323;50.848;4.334;2023-06-22T01:21:40;21.60;1.00
14475;DHT22;7323;50.848;4.334;2023-06-22T01:24:23;21.70;1.00
14475;DHT22;7323;50.848;4.334;2023-06-22T01:29:55;21.60;1.00
14475;DHT22;7323;50.848;4.334;2023-06-22T01:32:31;21.40;1.00
14475;DHT22;7323;50.848;4.334;2023-06-22T01:35:00;21.40;1.00
14475;DHT22;7323;50.848;4.334;2023-06-22T01:37:27;21.40;1.00
14475;DHT22;7323;50.848;4.334;2023-06-22T01:39:55;21.40;1.00
14475;DHT22;7323;50.848;4.334;2023-06-22T01:42:23;21.40;1.00
14475;DHT22;7323;50.848;4.334;2023-06-22T01:44:49;21.30;1.00
14475;DHT22;7323;50.848;4.334;2023-06-22T01:47:16;21.30;1.00
14475;DHT22;7323;50.848;4.334;2023-06-22T01:49:43;21.40;1.00
14475;DHT22;7323;50.848;4.334;2023-06-22T01:52:10;21.40;1.00
14475;DHT22;7323;50.848;4.334;2023-06-22T01:54:39;21.30;1.00
14475;DHT22;7323;50.848;4.334;2023-06-22T01:57:05;21.30;1.00
14475;DHT22;7323;50.848;4.334;2023-06-22T01:59:53;21.30;1.00
14475;DHT22;7323;50.848;4.334;2023-06-22T02:02:21;21.30;1.00
14475;DHT22;7323;50.848;4.334;2023-06-22T02:05:12;21.20;1.00
14475;DHT22;7323;50.848;4.334;2023-06-22T02:07:46;21.20;1.00
14475;DHT22;7323;50.848;4.334;2023-06-22T02:10:14;21.20;1.00
14475;DHT22;7323;50.848;4.334;2023-06-22T02:12:42;21.20;1.00
14475;DHT22;7323;50.848;4.334;2023-06-22T02:15:09;21.20;1.00
14475;DHT22;7323;50.848;4.334;2023-06-22T02:17:36;21.20;1.00
14475;DHT22;7323;50.848;4.334;2023-06-22T02:20:03;21.20;1.00
14475;DHT22;7323;50.848;4.334;2023-06-22T02:22:34;21.20;1.00
14475;DHT22;7323;50.848;4.334;2023-06-22T02:25:01;21.10;1.00
14475;DHT22;7323;50.848;4.334;2023-06-22T02:27:26;21.00;1.00
14475;DHT22;7323;50.848;4.334;2023-06-22T02:29:52;21.00;1.00
14475;DHT22;7323;50.848;4.334;2023-06-22T02:32:18;21.00;1.00
14475;DHT22;7323;50.848;4.334;2023-06-22T02:34:43;21.00;1.00
14475;DHT22;7323;50.848;4.334;2023-06-22T02:37:13;21.00;1.00
14475;DHT22;7323;50.848;4.334;2023-06-22T02:39:40;21.00;1.00
14475;DHT22;7323;50.848;4.334;2023-06-22T02:42:06;21.00;1.00
14475;DHT22;7323;50.848;4.334;2023-06-22T02:44:31;21.00;1.00
14475;DHT22;7323;50.848;4.334;2023-06-22T02:47:00;20.90;1.00
14475;DHT22;7323;50.848;4.334;2023-06-22T02:49:41;20.80;1.00
14475;DHT22;7323;50.848;4.334;2023-06-22T02:52:23;20.80;1.00
14475;DHT22;7323;50.848;4.334;2023-06-22T02:54:53;20.80;1.00
14475;DHT22;7323;50.848;4.334;2023-06-22T02:57:18;20.70;1.00
14475;DHT22;7323;50.848;4.334;2023-06-22T02:59:44;20.70;1.00
14475;DHT22;7323;50.848;4.334;2023-06-22T03:02:10;20.70;1.00
14475;DHT22;7323;50.848;4.334;2023-06-22T03:04:36;20.70;1.00
14475;DHT22;7323;50.848;4.334;2023-06-22T03:07:02;20.80;1.00
14475;DHT22;7323;50.848;4.334;2023-06-22T03:09:28;20.70;1.00
14475;DHT22;7323;50.848;4.334;2023-06-22T03:11:54;20.70;1.00
14475;DHT22;7323;50.848;4.334;2023-06-22T03:14:20;20.70;1.00
14475;DHT22;7323;50.848;4.334;2023-06-22T03:16:46;20.70;1.00
14475;DHT22;7323;50.848;4.334;2023-06-22T03:19:12;20.70;1.00
14475;DHT22;7323;50.848;4.334;2023-06-22T03:21:40;20.70;1.00
14475;DHT22;7323;50.848;4.334;2023-06-22T03:24:09;20.60;1.00
14475;DHT22;7323;50.848;4.334;2023-06-22T03:26:35;20.50;1.00
14475;DHT22;7323;50.848;4.334;2023-06-22T03:29:01;20.30;1.00
14475;DHT22;7323;50.848;4.334;2023-06-22T03:31:27;20.30;1.00
14475;DHT22;7323;50.848;4.334;2023-06-22T03:33:52;20.20;1.00
14475;DHT22;7323;50.848;4.334;2023-06-22T03:36:18;20.10;1.00
14475;DHT22;7323;50.848;4.334;2023-06-22T03:38:48;20.20;1.00
14475;DHT22;7323;50.848;4.334;2023-06-22T03:41:14;20.30;1.00
14475;DHT22;7323;50.848;4.334;2023-06-22T03:43:40;20.30;1.00
14475;DHT22;7323;50.848;4.334;2023-06-22T03:46:06;20.30;1.00
14475;DHT22;7323;50.848;4.334;2023-06-22T03:48:32;20.30;1.00
14475;DHT22;7323;50.848;4.334;2023-06-22T03:50:59;20.30;1.00
14475;DHT22;7323;50.848;4.334;2023-06-22T03:53:26;20.30;1.00
14475;DHT22;7323;50.848;4.334;2023-06-22T03:56:11;20.30;1.00
14475;DHT22;7323;50.848;4.334;2023-06-22T03:58:37;20.30;1.00
14475;DHT22;7323;50.848;4.334;2023-06-22T04:01:09;20.40;1.00
14475;DHT22;7323;50.848;4.334;2023-06-22T04:03:37;20.30;1.00
14475;DHT22;7323;50.848;4.334;2023-06-22T04:06:03;20.30;1.00
14475;DHT22;7323;50.848;4.334;2023-06-22T04:08:30;20.30;1.00
14475;DHT22;7323;50.848;4.334;2023-06-22T04:10:56;20.20;1.00
14475;DHT22;7323;50.848;4.334;2023-06-22T04:13:22;20.20;1.00
14475;DHT22;7323;50.848;4.334;2023-06-22T04:15:47;20.20;1.00
14475;DHT22;7323;50.848;4.334;2023-06-22T04:21:48;20.30;1.00
14475;DHT22;7323;50.848;4.334;2023-06-22T04:24:15;20.50;1.00
14475;DHT22;7323;50.848;4.334;2023-06-22T04:26:45;20.70;1.00
14475;DHT22;7323;50.848;4.334;2023-06-22T04:29:12;20.80;1.00
14475;DHT22;7323;50.848;4.334;2023-06-22T04:31:39;20.90;1.00
14475;DHT22;7323;50.848;4.334;2023-06-22T04:34:06;20.90;1.00
14475;DHT22;7323;50.848;4.334;2023-06-22T04:36:39;21.10;1.00
14475;DHT22;7323;50.848;4.334;2023-06-22T04:39:07;21.10;1.00
14475;DHT22;7323;50.848;4.334;2023-06-22T04:41:38;21.20;1.00
14475;DHT22;7323;50.848;4.334;2023-06-22T04:44:18;21.20;1.00
14475;DHT22;7323;50.848;4.334;2023-06-22T04:46:54;21.10;1.00
14475;DHT22;7323;50.848;4.334;2023-06-22T04:49:26;21.00;1.00
14475;DHT22;7323;50.848;4.334;2023-06-22T04:52:08;21.00;1.00
14475;DHT22;7323;50.848;4.334;2023-06-22T04:54:38;21.00;1.00
14475;DHT22;7323;50.848;4.334;2023-06-22T04:57:07;21.10;1.00
14475;DHT22;7323;50.848;4.334;2023-06-22T04:59:37;21.20;1.00
14475;DHT22;7323;50.848;4.334;2023-06-22T05:02:05;21.20;1.00
14475;DHT22;7323;50.848;4.334;2023-06-22T05:04:34;21.20;1.00
14475;DHT22;7323;50.848;4.334;2023-06-22T05:07:04;21.20;1.00
14475;DHT22;7323;50.848;4.334;2023-06-22T05:09:30;21.20;1.00
14475;DHT22;7323;50.848;4.334;2023-06-22T05:11:56;21.30;1.00
14475;DHT22;7323;50.848;4.334;2023-06-22T05:14:22;21.30;1.00
14475;DHT22;7323;50.848;4.334;2023-06-22T05:16:48;21.30;1.00
14475;DHT22;7323;50.848;4.334;2023-06-22T05:19:14;21.40;1.00
14475;DHT22;7323;50.848;4.334;2023-06-22T05:21:43;21.40;1.00
14475;DHT22;7323;50.848;4.334;2023-06-22T05:24:10;21.40;1.00
14475;DHT22;7323;50.848;4.334;2023-06-22T05:26:36;21.40;1.00
14475;DHT22;7323;50.848;4.334;2023-06-22T05:29:02;21.40;1.00
14475;DHT22;7323;50.848;4.334;2023-06-22T05:31:28;21.40;1.00
14475;DHT22;7323;50.848;4.334;2023-06-22T05:33:55;21.20;1.00
14475;DHT22;7323;50.848;4.334;2023-06-22T05:36:22;21.10;1.00
14475;DHT22;7323;50.848;4.334;2023-06-22T05:38:57;21.20;1.00
14475;DHT22;7323;50.848;4.334;2023-06-22T05:41:24;21.20;1.00
14475;DHT22;7323;50.848;4.334;2023-06-22T05:43:50;21.10;1.00
14475;DHT22;7323;50.848;4.334;2023-06-22T05:46:18;21.00;1.00
14475;DHT22;7323;50.848;4.334;2023-06-22T05:48:44;21.00;2.80
14475;DHT22;7323;50.848;4.334;2023-06-22T05:51:09;21.00;3.50
14475;DHT22;7323;50.848;4.334;2023-06-22T05:53:35;21.00;7.50
14475;DHT22;7323;50.848;4.334;2023-06-22T05:56:01;20.90;11.40
14475;DHT22;7323;50.848;4.334;2023-06-22T05:58:26;20.90;16.40
14475;DHT22;7323;50.848;4.334;2023-06-22T06:00:52;20.90;14.40
14475;DHT22;7323;50.848;4.334;2023-06-22T06:03:19;20.90;16.30
14475;DHT22;7323;50.848;4.334;2023-06-22T06:05:44;21.00;15.70
14475;DHT22;7323;50.848;4.334;2023-06-22T06:08:11;21.20;9.50
14475;DHT22;7323;50.848;4.334;2023-06-22T06:10:37;21.20;12.20
14475;DHT22;7323;50.848;4.334;2023-06-22T06:13:03;21.10;11.60
14475;DHT22;7323;50.848;4.334;2023-06-22T06:15:32;20.90;14.50
14475;DHT22;7323;50.848;4.334;2023-06-22T06:17:58;20.70;19.60
14475;DHT22;7323;50.848;4.334;2023-06-22T06:20:25;20.50;27.50
14475;DHT22;7323;50.848;4.334;2023-06-22T06:22:51;20.40;34.60
14475;DHT22;7323;50.848;4.334;2023-06-22T06:25:17;20.40;38.50
14475;DHT22;7323;50.848;4.334;2023-06-22T06:27:46;20.40;38.70
14475;DHT22;7323;50.848;4.334;2023-06-22T06:30:13;20.40;40.10
14475;DHT22;7323;50.848;4.334;2023-06-22T06:32:40;20.30;36.90
14475;DHT22;7323;50.848;4.334;2023-06-22T06:35:07;20.20;37.90
14475;DHT22;7323;50.848;4.334;2023-06-22T06:37:39;20.20;40.80
14475;DHT22;7323;50.848;4.334;2023-06-22T06:40:23;20.20;43.00
14475;DHT22;7323;50.848;4.334;2023-06-22T06:42:49;20.20;43.70
14475;DHT22;7323;50.848;4.334;2023-06-22T06:45:24;20.30;44.80
14475;DHT22;7323;50.848;4.334;2023-06-22T06:47:56;20.40;42.40
14475;DHT22;7323;50.848;4.334;2023-06-22T06:50:23;20.40;37.10
14475;DHT22;7323;50.848;4.334;2023-06-22T06:52:49;20.40;35.60
14475;DHT22;7323;50.848;4.334;2023-06-22T06:55:16;20.40;40.60
14475;DHT22;7323;50.848;4.334;2023-06-22T06:57:44;20.50;37.80
14475;DHT22;7323;50.848;4.334;2023-06-22T07:00:14;20.50;38.70
14475;DHT22;7323;50.848;4.334;2023-06-22T07:02:44;20.50;37.20
14475;DHT22;7323;50.848;4.334;2023-06-22T07:05:14;20.50;39.50
14475;DHT22;7323;50.848;4.334;2023-06-22T07:07:40;20.60;37.70
14475;DHT22;7323;50.848;4.334;2023-06-22T07:10:11;20.60;38.30
14475;DHT22;7323;50.848;4.334;2023-06-22T07:12:40;20.60;34.20
14475;DHT22;7323;50.848;4.334;2023-06-22T07:15:09;20.70;35.20
14475;DHT22;7323;50.848;4.334;2023-06-22T07:17:57;20.70;31.50
14475;DHT22;7323;50.848;4.334;2023-06-22T07:20:23;20.70;29.60
14475;DHT22;7323;50.848;4.334;2023-06-22T07:22:49;20.80;31.40
14475;DHT22;7323;50.848;4.334;2023-06-22T07:25:16;20.80;29.30
14475;DHT22;7323;50.848;4.334;2023-06-22T07:27:58;20.90;27.90
14475;DHT22;7323;50.848;4.334;2023-06-22T07:30:24;20.90;23.40
14475;DHT22;7323;50.848;4.334;2023-06-22T07:32:50;20.90;24.90
14475;DHT22;7323;50.848;4.334;2023-06-22T07:35:18;20.90;23.80
14475;DHT22;7323;50.848;4.334;2023-06-22T07:37:45;21.00;25.90
14475;DHT22;7323;50.848;4.334;2023-06-22T07:40:17;21.10;26.20
14475;DHT22;7323;50.848;4.334;2023-06-22T07:42:56;21.10;23.90
14475;DHT22;7323;50.848;4.334;2023-06-22T07:45:48;21.20;22.80
14475;DHT22;7323;50.848;4.334;2023-06-22T07:48:36;21.20;12.30
14475;DHT22;7323;50.848;4.334;2023-06-22T07:51:08;21.20;6.80
14475;DHT22;7323;50.848;4.334;2023-06-22T07:53:35;21.20;1.60
14475;DHT22;7323;50.848;4.334;2023-06-22T07:56:01;21.10;4.20
14475;DHT22;7323;50.848;4.334;2023-06-22T07:58:32;21.10;5.30
14475;DHT22;7323;50.848;4.334;2023-06-22T08:00:58;21.20;7.50
14475;DHT22;7323;50.848;4.334;2023-06-22T08:03:26;21.20;1.00
14475;DHT22;7323;50.848;4.334;2023-06-22T08:05:52;21.20;1.00
14475;DHT22;7323;50.848;4.334;2023-06-22T08:08:17;21.20;1.00
14475;DHT22;7323;50.848;4.334;2023-06-22T08:10:43;21.30;1.00
14475;DHT22;7323;50.848;4.334;2023-06-22T08:13:10;21.40;1.00
14475;DHT22;7323;50.848;4.334;2023-06-22T08:15:36;21.50;1.00
14475;DHT22;7323;50.848;4.334;2023-06-22T08:18:02;21.50;1.00
14475;DHT22;7323;50.848;4.334;2023-06-22T08:20:28;21.60;1.00
14475;DHT22;7323;50.848;4.334;2023-06-22T08:22:54;21.40;1.00
14475;DHT22;7323;50.848;4.334;2023-06-22T08:25:21;21.30;1.00
14475;DHT22;7323;50.848;4.334;2023-06-22T08:27:47;21.30;1.00
14475;DHT22;7323;50.848;4.334;2023-06-22T08:30:14;21.30;1.20
14475;DHT22;7323;50.848;4.334;2023-06-22T08:32:39;21.30;2.60
14475;DHT22;7323;50.848;4.334;2023-06-22T08:35:07;21.30;3.50
14475;DHT22;7323;50.848;4.334;2023-06-22T08:37:35;21.30;4.00
14475;DHT22;7323;50.848;4.334;2023-06-22T08:40:03;21.20;5.00
14475;DHT22;7323;50.848;4.334;2023-06-22T08:42:36;21.20;5.50
14475;DHT22;7323;50.848;4.334;2023-06-22T08:45:08;21.20;6.70
14475;DHT22;7323;50.848;4.334;2023-06-22T08:47:37;21.20;8.60
14475;DHT22;7323;50.848;4.334;2023-06-22T08:50:06;21.20;10.30
14475;DHT22;7323;50.848;4.334;2023-06-22T08:52:33;21.20;10.90
14475;DHT22;7323;50.848;4.334;2023-06-22T08:54:59;21.10;6.90
14475;DHT22;7323;50.848;4.334;2023-06-22T09:00:39;21.20;14.10
14475;DHT22;7323;50.848;4.334;2023-06-22T09:03:07;21.20;13.30
14475;DHT22;7323;50.848;4.334;2023-06-22T09:05:45;21.10;12.80
14475;DHT22;7323;50.848;4.334;2023-06-22T09:08:12;21.10;16.40
14475;DHT22;7323;50.848;4.334;2023-06-22T09:10:38;21.10;18.70
14475;DHT22;7323;50.848;4.334;2023-06-22T09:13:03;21.10;15.90
14475;DHT22;7323;50.848;4.334;2023-06-22T09:15:29;21.10;20.60
14475;DHT22;7323;50.848;4.334;2023-06-22T09:17:56;21.20;18.70
14475;DHT22;7323;50.848;4.334;2023-06-22T09:20:22;21.20;21.60
14475;DHT22;7323;50.848;4.334;2023-06-22T09:22:48;21.20;17.90
14475;DHT22;7323;50.848;4.334;2023-06-22T09:25:14;21.20;17.80
14475;DHT22;7323;50.848;4.334;2023-06-22T09:27:40;21.10;19.70
14475;DHT22;7323;50.848;4.334;2023-06-22T09:30:06;21.10;20.60
14475;DHT22;7323;50.848;4.334;2023-06-22T09:32:33;21.10;19.00
14475;DHT22;7323;50.848;4.334;2023-06-22T09:35:03;21.10;20.50
14475;DHT22;7323;50.848;4.334;2023-06-22T09:37:31;21.10;24.30
14475;DHT22;7323;50.848;4.334;2023-06-22T09:39:57;21.10;28.40
14475;DHT22;7323;50.848;4.334;2023-06-22T09:42:23;21.20;36.80
14475;DHT22;7323;50.848;4.334;2023-06-22T09:44:49;21.30;34.60
14475;DHT22;7323;50.848;4.334;2023-06-22T09:47:14;21.30;29.40
14475;DHT22;7323;50.848;4.334;2023-06-22T09:49:40;21.30;25.80
14475;DHT22;7323;50.848;4.334;2023-06-22T09:52:06;21.20;21.70
14475;DHT22;7323;50.848;4.334;2023-06-22T09:54:31;21.30;33.30
14475;DHT22;7323;50.848;4.334;2023-06-22T09:56:59;21.20;50.30
14475;DHT22;7323;50.848;4.334;2023-06-22T09:59:25;21.10;56.50
14475;DHT22;7323;50.848;4.334;2023-06-22T10:01:50;21.20;52.20
14475;DHT22;7323;50.848;4.334;2023-06-22T10:04:16;21.20;54.60
14475;DHT22;7323;50.848;4.334;2023-06-22T10:06:42;21.10;59.00
14475;DHT22;7323;50.848;4.334;2023-06-22T10:09:10;20.90;57.70
14475;DHT22;7323;50.848;4.334;2023-06-22T10:11:36;20.50;81.50
14475;DHT22;7323;50.848;4.334;2023-06-22T10:14:02;20.40;86.50
14475;DHT22;7323;50.848;4.334;2023-06-22T10:16:33;20.00;90.50
14475;DHT22;7323;50.848;4.334;2023-06-22T10:19:01;19.70;96.60
14475;DHT22;7323;50.848;4.334;2023-06-22T10:21:29;19.50;99.90
14475;DHT22;7323;50.848;4.334;2023-06-22T10:23:55;19.30;99.90
14475;DHT22;7323;50.848;4.334;2023-06-22T10:26:21;19.10;99.90
14475;DHT22;7323;50.848;4.334;2023-06-22T10:28:47;18.80;99.90
14475;DHT22;7323;50.848;4.334;2023-06-22T10:31:13;18.70;99.90
14475;DHT22;7323;50.848;4.334;2023-06-22T10:33:47;18.60;99.90
14475;DHT22;7323;50.848;4.334;2023-06-22T10:36:14;18.60;99.90
14475;DHT22;7323;50.848;4.334;2023-06-22T10:38:43;18.60;99.90
14475;DHT22;7323;50.848;4.334;2023-06-22T10:41:08;18.70;99.90
14475;DHT22;7323;50.848;4.334;2023-06-22T10:43:37;18.60;99.90
14475;DHT22;7323;50.848;4.334;2023-06-22T10:49:19;18.40;99.90
14475;DHT22;7323;50.848;4.334;2023-06-22T10:51:45;18.40;99.90
14475;DHT22;7323;50.848;4.334;2023-06-22T10:54:13;18.50;99.90
14475;DHT22;7323;50.848;4.334;2023-06-22T10:56:40;18.50;99.90
14475;DHT22;7323;50.848;4.334;2023-06-22T10:59:05;18.60;99.90
14475;DHT22;7323;50.848;4.334;2023-06-22T11:01:31;18.60;99.90
14475;DHT22;7323;50.848;4.334;2023-06-22T11:03:58;18.60;99.90
14475;DHT22;7323;50.848;4.334;2023-06-22T11:06:27;18.60;99.90
14475;DHT22;7323;50.848;4.334;2023-06-22T11:08:56;18.70;99.90
14475;DHT22;7323;50.848;4.334;2023-06-22T11:11:22;18.70;99.90
14475;DHT22;7323;50.848;4.334;2023-06-22T11:13:48;18.80;99.90
14475;DHT22;7323;50.848;4.334;2023-06-22T11:16:14;18.80;99.90
14475;DHT22;7323;50.848;4.334;2023-06-22T11:18:41;18.80;99.90
14475;DHT22;7323;50.848;4.334;2023-06-22T11:21:06;18.80;99.90
14475;DHT22;7323;50.848;4.334;2023-06-22T11:23:33;18.80;99.90
14475;DHT22;7323;50.848;4.334;2023-06-22T11:25:59;18.90;99.90
14475;DHT22;7323;50.848;4.334;2023-06-22T11:28:27;18.80;99.90
14475;DHT22;7323;50.848;4.334;2023-06-22T11:30:56;18.80;99.90
14475;DHT22;7323;50.848;4.334;2023-06-22T11:33:22;18.80;99.90
14475;DHT22;7323;50.848;4.334;2023-06-22T11:35:50;18.80;99.90
14475;DHT22;7323;50.848;4.334;2023-06-22T11:38:19;18.80;99.90
14475;DHT22;7323;50.848;4.334;2023-06-22T11:40:45;18.60;99.90
14475;DHT22;7323;50.848;4.334;2023-06-22T11:43:17;18.60;99.90
14475;DHT22;7323;50.848;4.334;2023-06-22T11:45:47;18.70;99.90
14475;DHT22;7323;50.848;4.334;2023-06-22T11:48:12;18.60;99.90
14475;DHT22;7323;50.848;4.334;2023-06-22T11:50:40;18.60;99.90
14475;DHT22;7323;50.848;4.334;2023-06-22T11:53:07;18.70;99.90
14475;DHT22;7323;50.848;4.334;2023-06-22T11:55:35;18.70;99.90
14475;DHT22;7323;50.848;4.334;2023-06-22T11:58:00;18.70;99.90
14475;DHT22;7323;50.848;4.334;2023-06-22T12:00:30;18.70;99.90
14475;DHT22;7323;50.848;4.334;2023-06-22T12:02:56;18.90;99.90
14475;DHT22;7323;50.848;4.334;2023-06-22T12:05:22;18.90;99.90
14475;DHT22;7323;50.848;4.334;2023-06-22T12:07:49;18.90;99.90
14475;DHT22;7323;50.848;4.334;2023-06-22T12:10:18;18.90;99.90
14475;DHT22;7323;50.848;4.334;2023-06-22T12:12:47;18.80;99.90
14475;DHT22;7323;50.848;4.334;2023-06-22T12:15:16;18.80;99.90
14475;DHT22;7323;50.848;4.334;2023-06-22T12:17:51;18.80;99.90
14475;DHT22;7323;50.848;4.334;2023-06-22T12:20:21;18.80;99.90
14475;DHT22;7323;50.848;4.334;2023-06-22T12:22:47;18.80;99.90
14475;DHT22;7323;50.848;4.334;2023-06-22T12:25:14;18.80;99.90
14475;DHT22;7323;50.848;4.334;2023-06-22T12:27:40;18.80;99.90
14475;DHT22;7323;50.848;4.334;2023-06-22T12:30:09;18.70;99.90
14475;DHT22;7323;50.848;4.334;2023-06-22T12:32:35;18.80;99.90
14475;DHT22;7323;50.848;4.334;2023-06-22T12:35:00;18.80;99.90
14475;DHT22;7323;50.848;4.334;2023-06-22T12:37:27;18.80;99.90
14475;DHT22;7323;50.848;4.334;2023-06-22T12:40:00;18.80;99.90
14475;DHT22;7323;50.848;4.334;2023-06-22T12:42:26;18.80;99.90
14475;DHT22;7323;50.848;4.334;2023-06-22T12:44:55;18.90;99.90
14475;DHT22;7323;50.848;4.334;2023-06-22T12:47:24;18.90;99.90
14475;DHT22;7323;50.848;4.334;2023-06-22T12:49:50;18.80;99.90
14475;DHT22;7323;50.848;4.334;2023-06-22T12:52:15;18.80;99.90
14475;DHT22;7323;50.848;4.334;2023-06-22T12:54:56;18.90;99.90
14475;DHT22;7323;50.848;4.334;2023-06-22T12:57:25;18.90;99.90
14475;DHT22;7323;50.848;4.334;2023-06-22T12:59:53;18.90;99.90
14475;DHT22;7323;50.848;4.334;2023-06-22T13:02:18;18.90;99.90
14475;DHT22;7323;50.848;4.334;2023-06-22T13:04:44;18.90;99.90
14475;DHT22;7323;50.848;4.334;2023-06-22T13:07:13;18.90;99.90
14475;DHT22;7323;50.848;4.334;2023-06-22T13:09:39;18.90;99.90
14475;DHT22;7323;50.848;4.334;2023-06-22T13:12:06;18.90;99.90
14475;DHT22;7323;50.848;4.334;2023-06-22T13:14:32;18.90;99.90
14475;DHT22;7323;50.848;4.334;2023-06-22T13:16:57;18.90;99.90
14475;DHT22;7323;50.848;4.334;2023-06-22T13:19:23;18.90;99.90
14475;DHT22;7323;50.848;4.334;2023-06-22T13:21:49;18.90;99.90
14475;DHT22;7323;50.848;4.334;2023-06-22T13:24:17;18.90;99.90
14475;DHT22;7323;50.848;4.334;2023-06-22T13:26:43;18.90;99.90
14475;DHT22;7323;50.848;4.334;2023-06-22T13:29:09;18.80;99.90
14475;DHT22;7323;50.848;4.334;2023-06-22T13:31:34;18.80;99.90
14475;DHT22;7323;50.848;4.334;2023-06-22T13:34:00;18.70;99.90
14475;DHT22;7323;50.848;4.334;2023-06-22T13:36:26;18.70;99.90
14475;DHT22;7323;50.848;4.334;2023-06-22T13:38:51;18.70;99.90
14475;DHT22;7323;50.848;4.334;2023-06-22T13:41:17;18.70;99.90
14475;DHT22;7323;50.848;4.334;2023-06-22T13:43:43;18.70;99.90
14475;DHT22;7323;50.848;4.334;2023-06-22T13:46:11;18.60;99.90
14475;DHT22;7323;50.848;4.334;2023-06-22T13:48:37;18.60;99.90
14475;DHT22;7323;50.848;4.334;2023-06-22T13:51:03;18.60;99.90
14475;DHT22;7323;50.848;4.334;2023-06-22T13:53:42;18.50;99.90
14475;DHT22;7323;50.848;4.334;2023-06-22T13:56:08;18.50;99.90
14475;DHT22;7323;50.848;4.334;2023-06-22T13:58:33;18.50;99.90
14475;DHT22;7323;50.848;4.334;2023-06-22T14:01:00;18.50;99.90
14475;DHT22;7323;50.848;4.334;2023-06-22T14:03:27;18.50;99.90
14475;DHT22;7323;50.848;4.334;2023-06-22T14:05:52;18.50;99.90
14475;DHT22;7323;50.848;4.334;2023-06-22T14:08:21;18.50;99.90
14475;DHT22;7323;50.848;4.334;2023-06-22T14:10:48;18.50;99.90
14475;DHT22;7323;50.848;4.334;2023-06-22T14:13:15;18.40;99.90
14475;DHT22;7323;50.848;4.334;2023-06-22T14:15:41;18.40;99.90
14475;DHT22;7323;50.848;4.334;2023-06-22T14:18:08;18.40;99.90
14475;DHT22;7323;50.848;4.334;2023-06-22T14:20:35;18.50;99.90
14475;DHT22;7323;50.848;4.334;2023-06-22T14:23:35;18.50;99.90
14475;DHT22;7323;50.848;4.334;2023-06-22T14:26:36;18.40;99.90
14475;DHT22;7323;50.848;4.334;2023-06-22T14:29:02;18.50;99.90
14475;DHT22;7323;50.848;4.334;2023-06-22T14:31:27;18.50;99.90
14475;DHT22;7323;50.848;4.334;2023-06-22T14:33:53;18.50;99.90
14475;DHT22;7323;50.848;4.334;2023-06-22T14:36:19;18.60;99.90
14475;DHT22;7323;50.848;4.334;2023-06-22T14:38:44;18.50;99.90
14475;DHT22;7323;50.848;4.334;2023-06-22T14:41:11;18.50;99.90
14475;DHT22;7323;50.848;4.334;2023-06-22T14:43:37;18.60;99.90
14475;DHT22;7323;50.848;4.334;2023-06-22T14:46:03;18.60;99.90
14475;DHT22;7323;50.848;4.334;2023-06-22T14:48:29;18.60;99.90
14475;DHT22;7323;50.848;4.334;2023-06-22T14:50:54;18.60;99.90
14475;DHT22;7323;50.848;4.334;2023-06-22T14:53:21;18.60;99.90
14475;DHT22;7323;50.848;4.334;2023-06-22T14:55:48;18.70;99.90
14475;DHT22;7323;50.848;4.334;2023-06-22T14:58:13;18.70;99.90
14475;DHT22;7323;50.848;4.334;2023-06-22T15:00:39;18.70;99.90
14475;DHT22;7323;50.848;4.334;2023-06-22T15:03:06;18.80;99.90
14475;DHT22;7323;50.848;4.334;2023-06-22T15:05:33;18.80;99.90
14475;DHT22;7323;50.848;4.334;2023-06-22T15:07:59;18.80;99.90
14475;DHT22;7323;50.848;4.334;2023-06-22T15:10:24;18.90;99.90
14475;DHT22;7323;50.848;4.334;2023-06-22T15:12:50;18.90;99.90
14475;DHT22;7323;50.848;4.334;2023-06-22T15:15:16;18.90;99.90
14475;DHT22;7323;50.848;4.334;2023-06-22T15:17:41;18.90;99.90
14475;DHT22;7323;50.848;4.334;2023-06-22T15:20:07;19.10;99.90
14475;DHT22;7323;50.848;4.334;2023-06-22T15:22:33;19.20;99.90
14475;DHT22;7323;50.848;4.334;2023-06-22T15:24:59;19.30;99.90
14475;DHT22;7323;50.848;4.334;2023-06-22T15:27:25;19.30;99.90
14475;DHT22;7323;50.848;4.334;2023-06-22T15:29:50;19.30;99.90
14475;DHT22;7323;50.848;4.334;2023-06-22T15:32:17;19.30;99.90
14475;DHT22;7323;50.848;4.334;2023-06-22T15:34:48;19.30;99.90
14475;DHT22;7323;50.848;4.334;2023-06-22T15:37:22;19.30;99.90
14475;DHT22;7323;50.848;4.334;2023-06-22T15:39:48;19.40;99.90
14475;DHT22;7323;50.848;4.334;2023-06-22T15:42:13;19.40;99.90
14475;DHT22;7323;50.848;4.334;2023-06-22T15:44:39;19.50;99.90
14475;DHT22;7323;50.848;4.334;2023-06-22T15:47:06;19.50;99.90
14475;DHT22;7323;50.848;4.334;2023-06-22T15:49:32;19.60;99.90
14475;DHT22;7323;50.848;4.334;2023-06-22T15:51:57;19.60;99.90
14475;DHT22;7323;50.848;4.334;2023-06-22T15:54:23;19.70;99.90
14475;DHT22;7323;50.848;4.334;2023-06-22T15:56:49;19.70;99.90
14475;DHT22;7323;50.848;4.334;2023-06-22T15:59:14;19.90;99.90
14475;DHT22;7323;50.848;4.334;2023-06-22T16:01:40;19.90;99.90
14475;DHT22;7323;50.848;4.334;2023-06-22T16:04:06;19.90;99.90
14475;DHT22;7323;50.848;4.334;2023-06-22T16:06:31;20.00;99.90
14475;DHT22;7323;50.848;4.334;2023-06-22T16:08:57;20.00;99.90
14475;DHT22;7323;50.848;4.334;2023-06-22T16:11:22;20.00;99.90
14475;DHT22;7323;50.848;4.334;2023-06-22T16:13:48;20.20;99.90
14475;DHT22;7323;50.848;4.334;2023-06-22T16:16:14;20.20;99.90
14475;DHT22;7323;50.848;4.334;2023-06-22T16:18:42;20.30;99.90